Time;durP1;ratioP1;P1;durP2;ratioP2;P2;SDS_P1;SDS_P2;PMS_P1;PMS_P2;Temp;Humidity;BMP_temperature;BMP_pressure;BME280_temperature;BME280_humidity;BME280_pressure;Samples;Min_cycle;Max_cycle;Signal;HPM_P1;HPM_P2
2023/11/21 00:01:19;;;;;;;6.45;3.88;;;;;;;-8.20;64.89;98613.88;5007136;28;20038;-61
2023/11/21 00:03:44;;;;;;;6.15;3.63;;;;;;;-8.25;64.80;98605.75;5012024;28;20041;-61
2023/11/21 00:06:10;;;;;;;5.43;3.28;;;;;;;-8.22;64.82;98615.75;5011461;28;20057;-62
2023/11/21 00:08:37;;;;;;;6.97;3.92;;;;;;;-8.25;65.02;98614.28;5011508;28;20048;-61
2023/11/21 00:11:05;;;;;;;6.72;3.80;;;;;;;-8.22;64.70;98629.44;5011554;28;20038;-61
2023/11/21 00:13:32;;;;;;;5.28;3.72;;;;;;;-8.22;63.63;98610.63;5010388;28;20042;-61
2023/11/21 00:15:58;;;;;;;6.65;3.72;;;;;;;-8.43;65.37;98628.78;5010224;28;20052;-61
2023/11/21 00:18:24;;;;;;;6.75;2.92;;;;;;;-8.40;65.19;98609.72;5010159;28;20427;-59
2023/11/21 00:20:49;;;;;;;8.82;3.95;;;;;;;-8.30;63.51;98620.75;5011568;28;20092;-62
2023/11/21 00:23:15;;;;;;;5.60;3.17;;;;;;;-8.35;64.00;98604.94;5011555;28;20499;-62
2023/11/21 00:25:41;;;;;;;6.25;3.55;;;;;;;-8.34;65.09;98609.16;5011386;28;20037;-62
2023/11/21 00:28:07;;;;;;;4.22;3.10;;;;;;;-8.32;64.80;98613.22;5012323;28;20049;-60
2023/11/21 00:30:33;;;;;;;5.32;2.97;;;;;;;-8.30;64.73;98610.47;5030733;28;20069;-61
2023/11/21 00:32:58;;;;;;;6.82;3.33;;;;;;;-8.39;64.05;98613.91;5014041;28;20047;-60
2023/11/21 00:35:25;;;;;;;6.80;3.45;;;;;;;-8.49;64.59;98619.88;5015050;28;20505;-60
2023/11/21 00:37:51;;;;;;;5.20;3.70;;;;;;;-8.50;64.20;98607.13;5014636;28;20504;-60
2023/11/21 00:40:20;;;;;;;5.47;3.38;;;;;;;-8.43;64.26;98607.44;5014675;28;20045;-61
2023/11/21 00:42:47;;;;;;;6.53;4.05;;;;;;;-8.33;64.50;98603.84;5030452;28;20101;-60
2023/11/21 00:45:13;;;;;;;6.57;3.40;;;;;;;-8.34;64.42;98616.84;5029942;28;20578;-60
2023/11/21 00:47:39;;;;;;;4.32;2.92;;;;;;;-8.47;64.44;98623.13;5015035;28;20073;-60
2023/11/21 00:50:06;;;;;;;10.50;2.97;;;;;;;-8.53;63.85;98608.25;5014838;28;20419;-61
2023/11/21 00:52:32;;;;;;;3.70;2.88;;;;;;;-8.55;65.34;98607.56;5013694;28;20056;-60
2023/11/21 00:54:59;;;;;;;6.28;3.60;;;;;;;-8.64;65.02;98605.00;5014915;28;20034;-62
2023/11/21 00:57:26;;;;;;;6.50;3.70;;;;;;;-8.58;64.41;98607.03;5013292;28;20046;-60
2023/11/21 00:59:52;;;;;;;8.93;3.53;;;;;;;-8.62;65.18;98608.22;5014546;28;20033;-61
2023/11/21 01:02:18;;;;;;;7.55;3.67;;;;;;;-8.51;64.08;98614.03;5013142;28;20503;-61
2023/11/21 01:04:44;;;;;;;5.57;3.58;;;;;;;-8.56;64.02;98611.09;5014832;28;20050;-59
2023/11/21 01:07:09;;;;;;;4.28;2.70;;;;;;;-8.57;64.05;98606.06;5029499;28;20470;-60
2023/11/21 01:09:35;;;;;;;5.35;3.58;;;;;;;-8.66;65.77;98607.69;5014383;28;20042;-61
2023/11/21 01:12:01;;;;;;;5.25;3.63;;;;;;;-8.61;64.95;98599.59;5014479;28;20084;-61
2023/11/21 01:14:27;;;;;;;5.30;3.25;;;;;;;-8.62;64.22;98600.50;5014409;28;20062;-62
2023/11/21 01:16:53;;;;;;;6.15;3.85;;;;;;;-8.61;65.60;98602.16;5013252;28;20421;-61
2023/11/21 01:19:19;;;;;;;6.25;3.90;;;;;;;-8.62;65.56;98592.78;5013183;28;20038;-62
2023/11/21 01:21:45;;;;;;;5.22;3.63;;;;;;;-8.64;64.47;98613.50;5014127;28;20052;-60
2023/11/21 01:24:10;;;;;;;5.75;3.42;;;;;;;-8.66;64.73;98615.38;5013144;28;20044;-60
2023/11/21 01:26:36;;;;;;;6.68;3.50;;;;;;;-8.65;64.76;98600.78;5029647;28;20041;-58
2023/11/21 01:29:02;;;;;;;3.33;2.40;;;;;;;-8.79;64.31;98607.16;5013931;28;20049;-61
2023/11/21 01:31:29;;;;;;;15.77;3.75;;;;;;;-8.75;65.21;98596.44;5014120;28;20038;-64
2023/11/21 01:33:56;;;;;;;5.75;3.50;;;;;;;-8.87;64.84;98602.66;5014552;28;20135;-60
2023/11/21 01:36:21;;;;;;;5.95;2.72;;;;;;;-8.93;64.46;98609.13;5014293;28;20041;-60
2023/11/21 01:38:50;;;;;;;3.65;2.22;;;;;;;-8.90;64.69;98608.06;5029234;28;20052;-60
2023/11/21 01:41:16;;;;;;;3.13;2.65;;;;;;;-8.90;63.70;98627.81;5011947;28;20034;-61
2023/11/21 01:43:41;;;;;;;3.63;2.38;;;;;;;-9.00;63.48;98613.19;5029112;28;20072;-60
2023/11/21 01:46:08;;;;;;;4.55;2.90;;;;;;;-8.99;63.98;98609.66;5012756;28;20037;-62
2023/11/21 01:48:35;;;;;;;2.97;2.53;;;;;;;-8.99;64.01;98621.69;5013088;28;20502;-62
2023/11/21 01:51:02;;;;;;;4.03;2.60;;;;;;;-9.07;64.64;98612.06;5013579;28;20065;-60
2023/11/21 01:53:28;;;;;;;3.22;2.55;;;;;;;-9.14;64.13;98616.13;5014483;28;20049;-61
2023/11/21 01:55:55;;;;;;;4.68;2.72;;;;;;;-9.17;64.86;98616.38;5031080;28;20045;-62
2023/11/21 01:58:21;;;;;;;3.30;3.00;;;;;;;-9.09;64.44;98623.41;5014627;28;20422;-59
2023/11/21 02:00:50;;;;;;;5.47;2.88;;;;;;;-9.07;63.30;98609.50;4996761;28;20535;-61
2023/11/21 02:03:16;;;;;;;3.67;2.53;;;;;;;-9.09;64.22;98624.22;5012357;28;20050;-61
2023/11/21 02:05:42;;;;;;;3.00;2.40;;;;;;;-9.14;64.45;98595.59;5014676;28;20073;-61
2023/11/21 02:08:09;;;;;;;2.58;2.00;;;;;;;-9.29;63.81;98590.00;5013637;28;20085;-60
2023/11/21 02:10:36;;;;;;;5.18;3.00;;;;;;;-9.23;65.03;98606.66;5028843;28;20045;-59
2023/11/21 02:13:03;;;;;;;4.13;2.60;;;;;;;-9.21;65.20;98599.59;5028846;28;20166;-60
2023/11/21 02:15:29;;;;;;;4.30;2.67;;;;;;;-9.32;64.55;98618.50;5013628;28;20049;-61
2023/11/21 02:17:57;;;;;;;7.07;2.70;;;;;;;-9.31;65.50;98597.03;4995745;28;20701;-60
2023/11/21 02:20:24;;;;;;;3.75;2.83;;;;;;;-9.29;64.99;98610.53;5028655;28;20038;-60
2023/11/21 02:23:00;;;;;;;5.93;3.20;;;;;;;-9.38;65.26;98606.19;5028383;28;20068;-60
2023/11/21 02:25:30;;;;;;;7.07;2.50;;;;;;;-9.37;65.28;98597.53;5013035;28;20072;-60
2023/11/21 02:27:57;;;;;;;3.83;2.60;;;;;;;-9.40;65.58;98602.94;5011810;28;20041;-59
2023/11/21 02:30:24;;;;;;;3.72;2.60;;;;;;;-9.49;66.75;98601.16;5011666;28;20459;-60
2023/11/21 02:32:54;;;;;;;5.40;3.58;;;;;;;-9.48;67.42;98605.34;5027996;28;20127;-60
2023/11/21 02:35:21;;;;;;;5.18;2.67;;;;;;;-9.44;66.25;98604.97;4995655;28;20033;-59
2023/11/21 02:37:47;;;;;;;3.42;2.58;;;;;;;-9.45;66.83;98598.19;4995365;28;20046;-60
2023/11/21 02:40:17;;;;;;;4.25;2.70;;;;;;;-9.47;66.35;98601.81;5027808;28;20091;-60
2023/11/21 02:42:44;;;;;;;6.97;3.35;;;;;;;-9.46;66.60;98609.41;5012974;28;20130;-60
2023/11/21 02:45:16;;;;;;;3.97;2.80;;;;;;;-9.54;67.09;98616.13;5027756;28;20085;-61
2023/11/21 02:47:45;;;;;;;5.18;2.95;;;;;;;-9.48;67.44;98613.84;5011527;28;20046;-61
2023/11/21 02:50:11;;;;;;;4.57;2.78;;;;;;;-9.42;67.23;98617.63;5012350;28;20053;-60
2023/11/21 02:52:37;;;;;;;3.08;2.50;;;;;;;-9.39;67.61;98615.63;5011144;28;20050;-61
2023/11/21 02:55:03;;;;;;;4.68;2.85;;;;;;;-9.26;67.10;98624.88;5011200;28;20073;-61
2023/11/21 02:57:31;;;;;;;5.30;3.38;;;;;;;-9.19;67.08;98624.22;5027717;28;20498;-61
2023/11/21 02:59:56;;;;;;;6.13;3.58;;;;;;;-9.21;66.75;98618.38;5027525;28;20095;-60
2023/11/21 03:02:22;;;;;;;5.68;3.03;;;;;;;-9.08;67.40;98619.94;5027630;28;20447;-60
2023/11/21 03:04:49;;;;;;;3.92;3.00;;;;;;;-9.06;66.23;98625.72;5012757;28;20046;-60
2023/11/21 03:07:15;;;;;;;2.97;2.17;;;;;;;-8.99;66.75;98627.66;5012346;28;20046;-60
2023/11/21 03:09:41;;;;;;;5.53;3.00;;;;;;;-9.05;67.24;98628.16;4995823;28;20040;-61
2023/11/21 03:12:08;;;;;;;3.20;2.78;;;;;;;-9.11;67.38;98626.13;4991175;28;20042;-60
2023/11/21 03:14:34;;;;;;;5.97;3.55;;;;;;;-9.04;67.28;98624.66;4992845;28;20046;-61
2023/11/21 03:17:00;;;;;;;2.63;2.33;;;;;;;-9.24;68.11;98631.47;4975371;28;20129;-60
2023/11/21 03:19:28;;;;;;;3.78;2.63;;;;;;;-9.20;67.20;98627.72;4991217;28;20042;-61
2023/11/21 03:21:53;;;;;;;7.13;3.53;;;;;;;-9.16;68.24;98639.34;4991188;28;20078;-62
2023/11/21 03:24:19;;;;;;;5.45;3.58;;;;;;;-9.12;67.82;98631.38;4992315;28;20566;-60
2023/11/21 03:26:46;;;;;;;6.03;3.70;;;;;;;-9.11;67.29;98633.84;4991326;28;20034;-60
2023/11/21 03:29:12;;;;;;;6.35;3.42;;;;;;;-9.22;67.80;98644.19;4990982;28;20066;-60
2023/11/21 03:31:39;;;;;;;5.43;3.20;;;;;;;-9.10;67.82;98621.81;4992342;28;20092;-60
2023/11/21 03:34:04;;;;;;;5.78;3.88;;;;;;;-9.12;68.08;98627.06;4990969;28;20129;-61
2023/11/21 03:36:30;;;;;;;3.35;2.63;;;;;;;-9.18;68.25;98622.44;5007656;28;20269;-61
2023/11/21 03:38:56;;;;;;;5.03;2.90;;;;;;;-9.28;68.15;98616.47;4991835;28;20050;-60
2023/11/21 03:41:22;;;;;;;4.10;2.92;;;;;;;-9.27;68.34;98620.66;4990947;28;20081;-61
2023/11/21 03:43:47;;;;;;;5.57;3.95;;;;;;;-9.11;68.06;98633.84;4990817;28;20472;-59
2023/11/21 03:46:14;;;;;;;3.90;3.03;;;;;;;-9.01;67.82;98632.09;4992370;28;20128;-61
2023/11/21 03:48:39;;;;;;;2.80;2.45;;;;;;;-9.14;67.74;98636.66;4990965;28;20133;-61
2023/11/21 03:51:05;;;;;;;6.78;3.47;;;;;;;-9.06;67.55;98651.41;5007097;28;20172;-61
2023/11/21 03:53:35;;;;;;;7.00;2.97;;;;;;;-9.11;68.58;98643.28;4992252;28;20046;-59
2023/11/21 03:56:03;;;;;;;6.10;2.90;;;;;;;-9.14;67.32;98659.78;4990275;28;20042;-60
2023/11/21 03:58:29;;;;;;;3.45;2.63;;;;;;;-9.17;67.44;98639.50;4990475;28;20050;-60
2023/11/21 04:00:55;;;;;;;5.13;3.42;;;;;;;-9.14;68.54;98641.78;5005022;28;20037;-61
2023/11/21 04:03:21;;;;;;;5.30;3.40;;;;;;;-9.01;67.34;98652.63;5028177;28;20069;-61
2023/11/21 04:05:47;;;;;;;4.65;3.22;;;;;;;-9.14;68.22;98639.22;5015576;28;20034;-62
2023/11/21 04:08:13;;;;;;;3.72;2.80;;;;;;;-9.12;68.23;98636.50;5013786;28;20050;-61
2023/11/21 04:10:39;;;;;;;3.95;2.50;;;;;;;-9.07;67.44;98642.88;5014029;28;20092;-61
2023/11/21 04:13:06;;;;;;;3.70;2.95;;;;;;;-9.06;67.30;98648.81;5015412;28;20137;-61
2023/11/21 04:15:32;;;;;;;4.20;2.65;;;;;;;-9.04;67.88;98644.38;5014160;28;20052;-61
2023/11/21 04:17:58;;;;;;;5.43;3.13;;;;;;;-9.11;68.61;98643.28;5015096;28;20046;-60
2023/11/21 04:20:24;;;;;;;6.70;3.55;;;;;;;-9.00;67.97;98645.75;5013126;28;20056;-60
2023/11/21 04:22:50;;;;;;;4.75;3.22;;;;;;;-9.05;67.92;98645.34;5013289;28;20604;-60
2023/11/21 04:25:16;;;;;;;4.82;3.45;;;;;;;-9.01;67.29;98644.13;5014570;28;20047;-62
2023/11/21 04:27:45;;;;;;;9.85;3.28;;;;;;;-8.95;67.43;98649.53;5014885;28;20042;-62
2023/11/21 04:30:12;;;;;;;4.22;3.03;;;;;;;-8.78;66.42;98649.84;5013291;28;20108;-60
2023/11/21 04:32:39;;;;;;;4.07;2.78;;;;;;;-8.89;66.81;98647.41;5014969;28;20038;-59
2023/11/21 04:35:05;;;;;;;3.90;3.13;;;;;;;-8.92;66.63;98654.41;5014901;28;20044;-61
2023/11/21 04:37:31;;;;;;;3.42;2.83;;;;;;;-8.87;67.71;98645.50;5013293;28;20104;-62
2023/11/21 04:39:56;;;;;;;8.43;3.30;;;;;;;-8.93;67.74;98657.13;5012555;28;20512;-62
2023/11/21 04:42:22;;;;;;;7.72;3.85;;;;;;;-8.92;67.87;98651.84;4994644;28;20054;-61
2023/11/21 04:44:49;;;;;;;4.15;3.03;;;;;;;-8.99;67.54;98667.91;4996794;28;20050;-60
2023/11/21 04:47:15;;;;;;;4.72;2.95;;;;;;;-9.01;67.16;98668.03;5014345;28;20045;-60
2023/11/21 04:49:43;;;;;;;4.22;2.80;;;;;;;-8.95;67.26;98671.84;5014493;28;20041;-61
2023/11/21 04:52:09;;;;;;;4.38;2.78;;;;;;;-9.01;68.27;98668.03;4996644;28;20574;-60
2023/11/21 04:54:35;;;;;;;4.63;3.15;;;;;;;-8.92;67.08;98669.81;5014512;28;20124;-60
2023/11/21 04:57:01;;;;;;;4.72;3.45;;;;;;;-8.93;67.77;98668.22;5013454;28;20045;-60
2023/11/21 04:59:27;;;;;;;6.57;3.25;;;;;;;-8.82;68.03;98675.00;5013184;28;20571;-60
2023/11/21 05:01:56;;;;;;;4.18;2.78;;;;;;;-8.93;67.65;98687.94;5014314;28;20092;-60
2023/11/21 05:04:22;;;;;;;5.82;3.47;;;;;;;-8.95;67.33;98676.97;5013641;28;20054;-60
2023/11/21 05:06:48;;;;;;;5.60;3.25;;;;;;;-9.02;67.71;98679.25;5012971;28;20041;-60
2023/11/21 05:09:15;;;;;;;4.10;3.45;;;;;;;-8.90;68.29;98687.69;5014307;28;20048;-60
2023/11/21 05:11:41;;;;;;;5.70;3.75;;;;;;;-8.75;68.46;98700.97;5013012;28;20033;-60
2023/11/21 05:14:08;;;;;;;6.43;3.45;;;;;;;-8.80;67.59;98685.94;5014147;28;20496;-61
2023/11/21 05:16:35;;;;;;;4.20;3.20;;;;;;;-8.83;66.98;98690.53;5014100;28;20045;-61
2023/11/21 05:19:01;;;;;;;4.55;3.40;;;;;;;-8.72;67.27;98683.53;5014194;28;20061;-61
2023/11/21 05:21:27;;;;;;;5.35;2.92;;;;;;;-8.81;67.07;98702.31;5013551;28;20508;-61
2023/11/21 05:23:53;;;;;;;5.20;3.17;;;;;;;-8.78;67.23;98698.66;5012391;28;20054;-59
2023/11/21 05:26:19;;;;;;;4.15;3.50;;;;;;;-8.69;67.67;98683.25;5013912;28;20538;-62
2023/11/21 05:28:45;;;;;;;5.05;2.88;;;;;;;-8.54;67.56;98696.53;5012016;28;20045;-61
2023/11/21 05:31:10;;;;;;;9.07;3.47;;;;;;;-8.59;67.23;98703.03;5011228;28;20115;-61
2023/11/21 05:33:36;;;;;;;4.20;2.78;;;;;;;-8.74;66.36;98697.44;4994412;28;20122;-60
2023/11/21 05:36:02;;;;;;;5.53;2.90;;;;;;;-8.66;66.40;98684.75;5013741;28;20529;-61
2023/11/21 05:38:29;;;;;;;4.20;2.83;;;;;;;-8.62;67.04;98687.88;5013748;28;20050;-63
2023/11/21 05:40:55;;;;;;;4.13;2.25;;;;;;;-8.72;67.48;98686.09;5013448;28;20073;-62
2023/11/21 05:43:20;;;;;;;5.88;3.50;;;;;;;-8.64;67.93;98684.63;5012514;28;20066;-62
2023/11/21 05:45:46;;;;;;;3.53;2.67;;;;;;;-8.56;67.40;98688.16;5012814;28;20041;-62
2023/11/21 05:48:12;;;;;;;3.65;2.55;;;;;;;-8.53;66.51;98681.94;5013812;28;20050;-60
2023/11/21 05:50:38;;;;;;;4.22;3.03;;;;;;;-8.53;67.32;98684.50;5013637;28;20128;-63
2023/11/21 05:53:03;;;;;;;8.10;3.28;;;;;;;-8.56;67.90;98677.06;5013657;28;20096;-60
2023/11/21 05:55:29;;;;;;;12.85;3.90;;;;;;;-8.51;66.76;98668.00;5011686;28;20052;-62
2023/11/21 05:57:55;;;;;;;7.97;2.58;;;;;;;-8.41;66.00;98674.91;5013520;28;20053;-61
2023/11/21 06:00:25;;;;;;;9.18;3.88;;;;;;;-8.30;66.77;98685.84;5012855;28;20056;-62
2023/11/21 06:02:54;;;;;;;3.40;3.00;;;;;;;-8.22;66.32;98690.31;5012787;28;20144;-61
2023/11/21 06:05:23;;;;;;;6.13;3.10;;;;;;;-8.32;65.85;98687.75;5011485;28;20034;-62
2023/11/21 06:07:59;;;;;;;4.22;2.92;;;;;;;-8.13;65.71;98681.00;4995478;28;20104;-61
2023/11/21 06:10:25;;;;;;;4.63;2.90;;;;;;;-8.08;64.61;98683.97;4992912;28;20030;-61
2023/11/21 06:12:52;;;;;;;5.45;2.70;;;;;;;-8.08;65.07;98691.69;5009378;28;20052;-60
2023/11/21 06:15:20;;;;;;;4.43;3.30;;;;;;;-8.08;64.97;98696.84;5011693;28;20108;-62
2023/11/21 06:17:49;;;;;;;4.03;2.42;;;;;;;-7.95;64.84;98711.97;5013113;28;20479;-61
2023/11/21 06:20:15;;;;;;;7.43;2.55;;;;;;;-8.10;64.80;98706.44;5011420;28;20038;-62
2023/11/21 06:22:42;;;;;;;7.35;3.08;;;;;;;-8.08;65.19;98718.22;5011578;28;20053;-61
2023/11/21 06:25:09;;;;;;;4.90;3.30;;;;;;;-8.05;65.30;98710.22;5010770;28;20037;-60
2023/11/21 06:27:38;;;;;;;3.92;2.92;;;;;;;-8.03;64.99;98699.78;5012509;28;20508;-60
2023/11/21 06:30:06;;;;;;;5.45;3.58;;;;;;;-7.98;64.32;98707.91;5006352;28;20530;-62
2023/11/21 06:32:32;;;;;;;6.10;3.10;;;;;;;-8.04;63.57;98711.84;4993211;28;20589;-61
2023/11/21 06:35:01;;;;;;;9.02;2.83;;;;;;;-8.10;64.57;98699.53;4998127;28;20104;-61
2023/11/21 06:37:29;;;;;;;6.68;3.22;;;;;;;-8.00;63.54;98702.94;5012854;28;20076;-60
2023/11/21 06:39:56;;;;;;;5.55;3.47;;;;;;;-7.88;64.55;98723.34;5027802;28;20037;-61
2023/11/21 06:42:23;;;;;;;5.18;3.78;;;;;;;-7.87;63.52;98705.22;5012390;28;20050;-63
2023/11/21 06:44:53;;;;;;;3.17;2.17;;;;;;;-7.93;63.96;98707.53;5012010;28;20077;-60
2023/11/21 06:47:20;;;;;;;4.65;3.17;;;;;;;-7.82;63.69;98686.81;5012523;28;20049;-60
2023/11/21 06:49:49;;;;;;;6.85;3.42;;;;;;;-7.70;63.40;98702.91;5012493;28;20120;-62
2023/11/21 06:52:15;;;;;;;6.22;3.45;;;;;;;-7.55;62.45;98691.22;5012328;28;20042;-61
2023/11/21 06:54:42;;;;;;;8.68;3.40;;;;;;;-7.50;62.08;98699.31;5011973;28;20562;-60
2023/11/21 06:57:08;;;;;;;6.32;3.00;;;;;;;-7.61;61.47;98702.88;5012331;28;20049;-61
2023/11/21 06:59:34;;;;;;;4.32;2.58;;;;;;;-7.57;61.03;98708.56;5010926;28;20381;-62
2023/11/21 07:02:00;;;;;;;4.35;2.92;;;;;;;-7.62;62.33;98708.94;5011923;28;20060;-60
2023/11/21 07:04:26;;;;;;;6.50;3.20;;;;;;;-7.55;61.12;98724.69;5012228;28;20042;-62
2023/11/21 07:06:53;;;;;;;3.97;2.97;;;;;;;-7.46;62.03;98717.88;5012303;28;20042;-58
2023/11/21 07:09:21;;;;;;;4.70;3.05;;;;;;;-7.32;61.65;98714.88;5010684;28;20487;-62
2023/11/21 07:11:50;;;;;;;8.68;3.85;;;;;;;-7.20;61.60;98710.38;5010854;28;20504;-60
2023/11/21 07:14:16;;;;;;;6.10;3.42;;;;;;;-7.19;60.96;98710.22;5011879;28;20133;-62
2023/11/21 07:16:43;;;;;;;4.57;3.00;;;;;;;-7.23;61.39;98723.53;5010496;28;20038;-61
2023/11/21 07:19:09;;;;;;;4.53;3.05;;;;;;;-7.22;61.25;98714.84;5011595;28;20453;-57
2023/11/21 07:21:35;;;;;;;4.78;3.47;;;;;;;-7.25;60.72;98715.94;5011161;28;20045;-60
2023/11/21 07:24:02;;;;;;;4.70;2.70;;;;;;;-7.50;61.93;98707.03;5010069;28;20088;-57
2023/11/21 07:26:28;;;;;;;6.50;3.35;;;;;;;-7.49;61.49;98711.25;5010352;28;20051;-61
2023/11/21 07:28:54;;;;;;;4.20;2.55;;;;;;;-7.47;61.65;98736.84;5011540;28;20140;-59
2023/11/21 07:31:20;;;;;;;2.80;2.13;;;;;;;-7.65;61.72;98732.38;5011342;28;20034;-61
2023/11/21 07:33:49;;;;;;;4.13;2.83;;;;;;;-7.56;62.67;98718.72;5011548;28;20044;-60
2023/11/21 07:36:15;;;;;;;4.45;3.17;;;;;;;-7.36;61.87;98734.91;5010992;28;20061;-60
2023/11/21 07:38:42;;;;;;;4.70;3.50;;;;;;;-7.37;61.43;98724.78;5010094;28;20523;-61
2023/11/21 07:41:09;;;;;;;4.95;3.22;;;;;;;-7.23;62.30;98720.94;5009467;28;20519;-61
2023/11/21 07:43:35;;;;;;;4.90;3.42;;;;;;;-7.14;61.74;98717.53;4993224;28;20066;-59
2023/11/21 07:46:04;;;;;;;4.95;3.60;;;;;;;-6.96;61.18;98709.88;5011446;28;20046;-60
2023/11/21 07:48:31;;;;;;;5.85;3.13;;;;;;;-7.11;61.95;98701.78;5011472;28;20037;-59
2023/11/21 07:51:00;;;;;;;6.07;3.00;;;;;;;-7.09;61.10;98720.47;5009413;28;20471;-61
2023/11/21 07:53:29;;;;;;;8.50;3.87;;;;;;;-7.08;60.92;98724.69;5026002;28;20136;-60
2023/11/21 07:55:57;;;;;;;6.57;3.60;;;;;;;-7.05;61.26;98721.03;5009738;28;20503;-60
2023/11/21 07:58:23;;;;;;;6.05;2.90;;;;;;;-6.99;61.66;98725.59;5011006;28;20104;-61
2023/11/21 08:00:52;;;;;;;5.93;3.33;;;;;;;-7.11;61.65;98725.78;5010711;28;20038;-61
2023/11/21 08:03:18;;;;;;;6.25;3.47;;;;;;;-7.02;61.68;98720.75;5010974;28;20092;-61
2023/11/21 08:05:43;;;;;;;5.75;3.47;;;;;;;-7.06;62.24;98711.66;5010726;28;20038;-62
2023/11/21 08:08:09;;;;;;;4.00;2.08;;;;;;;-7.22;61.73;98725.94;5009758;28;20076;-61
2023/11/21 08:10:38;;;;;;;7.15;3.08;;;;;;;-7.09;61.86;98739.34;5011211;28;20499;-62
2023/11/21 08:13:06;;;;;;;6.78;3.25;;;;;;;-7.11;61.89;98728.34;5011312;28;20050;-61
2023/11/21 08:15:32;;;;;;;5.45;3.00;;;;;;;-7.01;61.61;98719.78;5009588;28;20498;-62
2023/11/21 08:17:58;;;;;;;5.13;2.97;;;;;;;-6.93;61.09;98717.31;5011345;28;20052;-61
2023/11/21 08:20:25;;;;;;;6.57;3.58;;;;;;;-6.97;61.72;98700.50;5010932;28;20038;-60
2023/11/21 08:22:52;;;;;;;8.25;3.22;;;;;;;-6.95;62.30;98701.97;5011180;28;20042;-62
2023/11/21 08:25:19;;;;;;;5.00;2.78;;;;;;;-6.93;62.41;98699.28;5011047;28;20081;-62
2023/11/21 08:27:46;;;;;;;8.32;3.83;;;;;;;-6.90;62.38;98704.13;5011300;28;20061;-62
2023/11/21 08:30:14;;;;;;;7.30;3.70;;;;;;;-6.69;63.07;98694.38;5026331;28;20041;-61
2023/11/21 08:32:40;;;;;;;8.98;4.10;;;;;;;-6.61;62.84;98690.28;5010249;28;20129;-61
2023/11/21 08:35:08;;;;;;;6.40;3.55;;;;;;;-6.63;62.17;98691.22;5010721;28;20124;-61
2023/11/21 08:37:37;;;;;;;6.68;4.15;;;;;;;-6.54;62.66;98691.31;5008320;28;20048;-61
2023/11/21 08:40:08;;;;;;;7.15;3.28;;;;;;;-6.53;61.96;98703.25;5010340;28;20466;-61
2023/11/21 08:42:34;;;;;;;6.68;3.65;;;;;;;-6.40;61.96;98701.94;5008247;28;20103;-62
2023/11/21 08:45:00;;;;;;;5.97;4.53;;;;;;;-6.38;62.07;98706.97;5010572;28;20050;-60
2023/11/21 08:47:26;;;;;;;8.77;4.15;;;;;;;-6.44;62.29;98698.06;5011226;28;20116;-60
2023/11/21 08:49:53;;;;;;;5.38;3.50;;;;;;;-6.37;62.50;98697.47;5013083;28;20045;-62
2023/11/21 08:52:25;;;;;;;3.42;2.90;;;;;;;-6.43;61.53;98688.53;5013257;28;20042;-62
2023/11/21 08:54:55;;;;;;;8.60;3.72;;;;;;;-6.42;62.21;98690.97;5012906;28;20065;-59
2023/11/21 08:57:22;;;;;;;6.38;3.85;;;;;;;-6.40;61.57;98701.94;5014535;28;20439;-61
2023/11/21 08:59:48;;;;;;;5.70;3.65;;;;;;;-6.32;62.17;98696.06;5009794;28;20062;-62
2023/11/21 09:02:14;;;;;;;8.57;4.32;;;;;;;-6.20;62.08;98694.09;4993300;28;20054;-60
2023/11/21 09:04:39;;;;;;;9.05;4.03;;;;;;;-6.28;61.74;98691.44;4998163;28;20041;-62
2023/11/21 09:07:05;;;;;;;9.10;3.63;;;;;;;-6.40;62.50;98701.16;5014152;28;20045;-61
2023/11/21 09:09:31;;;;;;;4.68;3.13;;;;;;;-6.60;62.39;98704.81;5012678;28;20041;-63
2023/11/21 09:11:57;;;;;;;6.13;4.10;;;;;;;-6.64;62.40;98702.50;5014023;28;20050;-60
2023/11/21 09:14:23;;;;;;;9.38;3.65;;;;;;;-6.53;62.75;98705.81;5014250;28;20077;-61
2023/11/21 09:16:50;;;;;;;5.60;3.45;;;;;;;-6.41;62.85;98712.44;5012897;28;20068;-63
2023/11/21 09:19:16;;;;;;;7.07;2.85;;;;;;;-6.57;61.91;98712.25;5012832;28;20049;-61
2023/11/21 09:21:42;;;;;;;5.28;3.85;;;;;;;-6.54;62.37;98719.69;5014353;28;20042;-61
2023/11/21 09:24:08;;;;;;;5.78;4.07;;;;;;;-6.58;61.84;98710.63;5014156;28;20048;-63
2023/11/21 09:26:34;;;;;;;4.45;3.20;;;;;;;-6.46;61.23;98719.78;5013648;28;20053;-60
2023/11/21 09:29:02;;;;;;;5.38;3.42;;;;;;;-6.50;61.31;98727.00;5013787;28;20042;-60
2023/11/21 09:31:27;;;;;;;6.50;4.32;;;;;;;-6.55;63.01;98715.50;5012851;28;20045;-60
2023/11/21 09:33:53;;;;;;;6.13;3.75;;;;;;;-6.44;62.46;98717.84;5012588;28;20054;-61
2023/11/21 09:36:21;;;;;;;8.73;3.70;;;;;;;-6.47;61.75;98718.13;5013612;28;20473;-62
2023/11/21 09:38:49;;;;;;;4.28;3.20;;;;;;;-6.56;62.08;98712.09;5013995;28;20077;-60
2023/11/21 09:41:23;;;;;;;17.27;4.10;;;;;;;-6.36;62.69;98715.34;5013476;28;20042;-60
2023/11/21 09:43:55;;;;;;;4.95;3.33;;;;;;;-6.41;62.87;98720.97;5011075;28;20054;-61
2023/11/21 09:46:25;;;;;;;6.95;3.13;;;;;;;-6.44;62.20;98718.69;5012776;28;20045;-59
2023/11/21 09:48:56;;;;;;;9.05;3.95;;;;;;;-6.33;61.76;98720.22;5013923;28;20096;-61
2023/11/21 09:51:24;;;;;;;5.53;3.00;;;;;;;-6.44;60.57;98717.84;5012012;28;20050;-61
2023/11/21 09:53:52;;;;;;;4.93;3.22;;;;;;;-6.56;60.86;98731.91;5012303;28;20148;-62
2023/11/21 09:56:23;;;;;;;4.88;3.28;;;;;;;-6.58;60.57;98737.22;5012326;28;20522;-61
2023/11/21 09:58:53;;;;;;;4.10;2.72;;;;;;;-6.57;60.24;98740.59;5012750;28;20142;-61
2023/11/21 10:01:20;;;;;;;4.40;2.92;;;;;;;-6.60;60.92;98731.38;5011812;28;20068;-60
2023/11/21 10:03:47;;;;;;;9.70;3.47;;;;;;;-6.40;60.89;98745.78;5011867;28;20061;-60
2023/11/21 10:06:14;;;;;;;2.95;2.50;;;;;;;-6.46;60.04;98735.25;5013104;28;20088;-62
2023/11/21 10:08:41;;;;;;;6.25;3.33;;;;;;;-6.49;60.98;98738.13;5011282;28;20145;-62
2023/11/21 10:11:11;;;;;;;5.85;3.38;;;;;;;-6.46;60.45;98748.16;5010510;28;20038;-61
2023/11/21 10:13:37;;;;;;;4.25;3.15;;;;;;;-6.42;60.06;98736.56;5007792;28;20133;-61
2023/11/21 10:16:25;;;;;;;5.10;3.58;;;;;;;-6.42;60.42;98739.16;5012829;28;20038;-60
2023/11/21 10:19:27;;;;;;;5.70;2.65;;;;;;;-6.51;60.30;98738.25;4993148;28;20041;-58
2023/11/21 10:21:57;;;;;;;10.52;3.85;;;;;;;-6.52;60.73;98739.22;4974561;28;20077;-60
2023/11/21 10:24:23;;;;;;;5.60;3.42;;;;;;;-6.48;60.63;98747.47;5011668;28;20042;-62
2023/11/21 10:26:50;;;;;;;5.70;3.05;;;;;;;-6.55;59.63;98731.78;5012783;28;20115;-62
2023/11/21 10:29:18;;;;;;;7.22;3.58;;;;;;;-6.55;60.81;98741.28;5012481;28;20054;-62
2023/11/21 10:31:45;;;;;;;7.97;3.70;;;;;;;-6.48;60.46;98742.31;4994767;28;20053;-61
2023/11/21 10:34:16;;;;;;;4.57;2.72;;;;;;;-6.53;59.57;98755.66;5027686;28;20507;-63
2023/11/21 10:36:42;;;;;;;5.80;3.28;;;;;;;-6.61;60.19;98755.56;5011269;28;20069;-62
2023/11/21 10:39:09;;;;;;;5.00;2.97;;;;;;;-6.62;59.79;98751.31;5012921;28;20042;-61
2023/11/21 10:41:35;;;;;;;4.63;2.95;;;;;;;-6.70;60.22;98759.00;5027940;28;20042;-62
2023/11/21 10:44:07;;;;;;;5.80;3.63;;;;;;;-6.47;60.26;98749.06;5011127;28;20424;-63
2023/11/21 10:46:33;;;;;;;13.40;4.10;;;;;;;-6.51;60.24;98743.41;5012444;28;20046;-60
2023/11/21 10:48:59;;;;;;;3.67;3.00;;;;;;;-6.47;60.08;98738.75;5010841;28;20381;-62
2023/11/21 10:51:25;;;;;;;10.30;3.83;;;;;;;-6.34;59.41;98746.97;4994195;28;20048;-63
2023/11/21 10:53:52;;;;;;;8.65;4.20;;;;;;;-6.17;59.61;98742.81;5010249;28;20037;-61
2023/11/21 10:56:19;;;;;;;6.45;3.42;;;;;;;-6.12;58.82;98748.31;5010461;28;20045;-61
2023/11/21 10:58:45;;;;;;;7.38;3.88;;;;;;;-6.03;59.18;98750.03;5011888;28;20128;-61
2023/11/21 11:01:14;;;;;;;3.78;3.00;;;;;;;-6.21;58.84;98757.75;5010976;28;20523;-59
2023/11/21 11:03:41;;;;;;;5.47;3.15;;;;;;;-6.22;59.37;98748.41;5027266;28;20084;-61
2023/11/21 11:06:11;;;;;;;4.88;3.40;;;;;;;-6.29;59.17;98754.31;5010861;28;20100;-61
2023/11/21 11:08:37;;;;;;;6.13;3.63;;;;;;;-6.27;59.40;98750.59;5010769;28;20452;-62
2023/11/21 11:11:07;;;;;;;5.03;3.50;;;;;;;-6.46;59.18;98746.38;5011137;28;20264;-61
2023/11/21 11:13:33;;;;;;;4.32;3.35;;;;;;;-6.36;59.64;98755.81;5012031;28;20050;-62
2023/11/21 11:16:03;;;;;;;9.82;4.40;;;;;;;-6.22;59.75;98745.81;5011631;28;20518;-63
2023/11/21 11:18:29;;;;;;;4.10;3.40;;;;;;;-6.27;59.55;98742.84;4994827;28;20096;-62
2023/11/21 11:21:07;;;;;;;4.13;3.20;;;;;;;-6.32;59.08;98750.22;5010130;28;20070;-62
2023/11/21 11:23:44;;;;;;;5.80;3.35;;;;;;;-6.38;59.32;98749.97;4993211;28;20060;-60
2023/11/21 11:26:28;;;;;;;8.48;3.28;;;;;;;-6.34;60.09;98746.97;5009746;28;20427;-63
2023/11/21 11:28:59;;;;;;;5.22;3.58;;;;;;;-6.20;59.09;98754.22;5010740;28;20061;-61
2023/11/21 11:31:46;;;;;;;8.23;3.53;;;;;;;-6.10;59.37;98761.09;5008076;28;20172;-60
2023/11/21 11:34:23;;;;;;;5.43;3.72;;;;;;;-6.02;58.78;98753.44;5011610;28;20377;-60